Map

Track Data

SID SEASON NUMBER BASIN SUBBASIN NAME ISO_TIME NATURE LAT LON WMO_WIND WMO_PRES WMO_AGENCY TRACK_TYPE DIST2LAND LANDFALL IFLAG USA_AGENCY USA_ATCF_ID USA_LAT USA_LON USA_RECORD USA_STATUS USA_WIND USA_PRES USA_SSHS USA_R34_NE USA_R34_SE USA_R34_SW USA_R34_NW USA_R50_NE USA_R50_SE USA_R50_SW USA_R50_NW USA_R64_NE USA_R64_SE USA_R64_SW USA_R64_NW USA_POCI USA_ROCI USA_RMW USA_EYE TOKYO_LAT TOKYO_LON TOKYO_GRADE TOKYO_WIND TOKYO_PRES TOKYO_R50_DIR TOKYO_R50_LONG TOKYO_R50_SHORT TOKYO_R30_DIR TOKYO_R30_LONG TOKYO_R30_SHORT TOKYO_LAND CMA_LAT CMA_LON CMA_CAT CMA_WIND CMA_PRES HKO_LAT HKO_LON HKO_CAT HKO_WIND HKO_PRES NEWDELHI_LAT NEWDELHI_LON NEWDELHI_GRADE NEWDELHI_WIND NEWDELHI_PRES NEWDELHI_CI NEWDELHI_DP NEWDELHI_POCI REUNION_LAT REUNION_LON REUNION_TYPE REUNION_WIND REUNION_PRES REUNION_TNUM REUNION_CI REUNION_RMW REUNION_R34_NE REUNION_R34_SE REUNION_R34_SW REUNION_R34_NW REUNION_R50_NE REUNION_R50_SE REUNION_R50_SW REUNION_R50_NW REUNION_R64_NE REUNION_R64_SE REUNION_R64_SW REUNION_R64_NW BOM_LAT BOM_LON BOM_TYPE BOM_WIND BOM_PRES BOM_TNUM BOM_CI BOM_RMW BOM_R34_NE BOM_R34_SE BOM_R34_SW BOM_R34_NW BOM_R50_NE BOM_R50_SE BOM_R50_SW BOM_R50_NW BOM_R64_NE BOM_R64_SE BOM_R64_SW BOM_R64_NW BOM_ROCI BOM_POCI BOM_EYE BOM_POS_METHOD BOM_PRES_METHOD NADI_LAT NADI_LON NADI_CAT NADI_WIND NADI_PRES WELLINGTON_LAT WELLINGTON_LON WELLINGTON_WIND WELLINGTON_PRES DS824_LAT DS824_LON DS824_STAGE DS824_WIND DS824_PRES TD9636_LAT TD9636_LON TD9636_STAGE TD9636_WIND TD9636_PRES TD9635_LAT TD9635_LON TD9635_WIND TD9635_PRES TD9635_ROCI NEUMANN_LAT NEUMANN_LON NEUMANN_CLASS NEUMANN_WIND NEUMANN_PRES MLC_LAT MLC_LON MLC_CLASS MLC_WIND MLC_PRES USA_GUST BOM_GUST BOM_GUST_PER REUNION_GUST REUNION_GUST_PER USA_SEAHGT USA_SEARAD_NE USA_SEARAD_SE USA_SEARAD_SW USA_SEARAD_NW STORM_SPEED STORM_DIR
1924216N21090 1924 24 NI BB NOT_NAMED 1924-08-03 00:00:00 TS 20.5000 90.4000 main 146 146 _________O____ -1 20.5000 90.4000 TC 34 1 270
1924216N21090 1924 24 NI BB NOT_NAMED 1924-08-03 03:00:00 TS 20.5000 90.3500 main 146 145 _________PO___ -1 20.5000 90.3250 TC 36 20.5000 90.4000 2 2 271
1924216N21090 1924 24 NI BB NOT_NAMED 1924-08-03 06:00:00 TS 20.5020 90.2094 main 145 145 _________OP___ -1 20.5000 90.2000 TC 39 20.5051 90.2235 2 3 271
1924216N21090 1924 24 NI BB NOT_NAMED 1924-08-03 09:00:00 TS 20.5035 90.0247 main 145 143 _________PP___ -1 20.5001 90.0000 TC 42 20.5080 90.0576 2 3 270
1924216N21090 1924 24 NI BB NOT_NAMED 1924-08-03 12:00:00 TS 20.5035 89.8565 main 143 140 _________OP___ -1 20.5000 89.8000 TC 45 20.5069 89.9129 2 3 269
1924216N21090 1924 24 NI BB NOT_NAMED 1924-08-03 15:00:00 TS 20.5000 89.7463 main 137 137 _________PO___ -1 20.4999 89.6925 TC 45 20.5000 89.8000 3 2 267
1924216N21090 1924 24 NI BB NOT_NAMED 1924-08-03 18:00:00 TS 20.4936 89.6602 main 137 133 _________OP___ -1 20.5000 89.6000 TC 45 20.4873 89.7204 3 2 265
1924216N21090 1924 24 NI BB NOT_NAMED 1924-08-03 21:00:00 TS 20.4845 89.5710 main 133 126 _________PP___ -1 20.4923 89.5024 TC 45 20.4766 89.6397 3 2 269
1924216N21090 1924 24 NI BB NOT_NAMED 1924-08-04 00:00:00 TS 20.4888 89.4070 main 126 123 _________OP___ -1 20.5000 89.3000 TC 45 20.4777 89.5141 3 4 274
1924216N21090 1924 24 NI BB NOT_NAMED 1924-08-04 03:00:00 TS 20.5176 89.0975 main 123 112 _________PO___ -1 20.5351 88.8950 TC 45 20.5000 89.3000 3 7 277
1924216N21090 1924 24 NI BB NOT_NAMED 1924-08-04 06:00:00 TS 20.5709 88.6697 main 113 111 _________OP___ -1 20.6000 88.4000 TC 45 20.5418 88.9393 3 8 279
1924216N21090 1924 24 NI BB NOT_NAMED 1924-08-04 09:00:00 TS 20.6491 88.2199 main 111 83 _________PP___ -1 20.6924 87.9500 TC 45 20.6058 88.4899 3 9 281
1924216N21090 1924 24 NI BB NOT_NAMED 1924-08-04 12:00:00 TS 20.7459 87.7477 main 72 31 _________OP___ -1 20.8000 87.5000 TC 45 20.6918 87.9955 3 9 282
1924216N21090 1924 24 NI BB NOT_NAMED 1924-08-04 15:00:00 TS 20.8425 87.2712 main 31 0 _________PO___ -1 20.8849 87.0423 TC 41 20.8000 87.5000 3 9 284
1924216N21090 1924 24 NI BB NOT_NAMED 1924-08-04 18:00:00 TS 20.9600 86.8298 main 0 0 _________OP___ -1 21.0000 86.6000 TC 37 20.9200 87.0596 3 9 289
1924216N21090 1924 24 NI BB NOT_NAMED 1924-08-04 21:00:00 TS 21.1235 86.4099 main 0 0 _________PP___ -1 21.1849 86.1925 TC 33 21.0622 86.6274 3 8 295
1924216N21090 1924 24 NI BB NOT_NAMED 1924-08-05 00:00:00 TS 21.3116 86.0032 main 0 0 _________OP___ -1 21.4000 85.8000 TC 30 21.2232 86.2064 3 8 296
1924216N21090 1924 24 NI BB NOT_NAMED 1924-08-05 03:00:00 TS 21.5000 85.5962 main 0 0 _________PO___ -1 21.6000 85.3924 TC 30 21.4000 85.8000 1 8 297
1924216N21090 1924 24 NI BB NOT_NAMED 1924-08-05 06:00:00 TS 21.6906 85.2052 main 0 0 _________OP___ -1 21.8000 85.0000 TC 30 21.5811 85.4104 1 8 299
1924216N21090 1924 24 NI BB NOT_NAMED 1924-08-05 09:00:00 TS 21.8884 84.8422 main 0 0 _________PP___ -1 21.9998 84.6498 TC 30 21.7770 85.0346 1 8 301
1924216N21090 1924 24 NI BB NOT_NAMED 1924-08-05 12:00:00 TS 22.0922 84.4833 main 0 0 _________OP___ -1 22.2000 84.3000 TC 30 21.9843 84.6665 1 8 301
1924216N21090 1924 24 NI BB NOT_NAMED 1924-08-05 15:00:00 TS 22.2963 84.0999 main 0 0 _________PO___ -1 22.3925 83.8999 TC 30 22.2000 84.3000 1 8 300
1924216N21090 1924 24 NI BB NOT_NAMED 1924-08-05 18:00:00 TS 22.5171 83.6944 main 0 0 _________OP___ -1 22.6000 83.5000 TC 30 22.4343 83.8888 1 9 303
1924216N21090 1924 24 NI BB NOT_NAMED 1924-08-05 21:00:00 TS 22.7690 83.2979 main 0 0 _________PP___ -1 22.8650 83.1127 TC 30 22.6729 83.4831 1 8 305
1924216N21090 1924 24 NI BB NOT_NAMED 1924-08-06 00:00:00 TS 23.0000 82.9554 main 0 0 _________OP___ -1 23.1000 82.8000 TC 30 22.9000 83.1108 1 7 306
1924216N21090 1924 24 NI BB NOT_NAMED 1924-08-06 03:00:00 TS 23.1574 82.7099 main 0 0 _________PO___ -1 23.2149 82.6198 TC 30 23.1000 82.8000 1 5 306
1924216N21090 1924 24 NI BB NOT_NAMED 1924-08-06 06:00:00 TS 23.2786 82.5383 main 0 0 _________OP___ -1 23.3000 82.5000 TC 30 23.2573 82.5765 1 4 311
1924216N21090 1924 24 NI BB NOT_NAMED 1924-08-06 09:00:00 TS 23.4185 82.3796 main 0 0 _________PP___ -1 23.4500 82.3425 TC 30 23.3869 82.4168 1 4 315
1924216N21090 1924 24 NI BB NOT_NAMED 1924-08-06 12:00:00 TS 23.5490 82.2493 main 0 0 _________OP___ -1 23.6000 82.2000 TC 30 23.4981 82.2986 1 3 318
1924216N21090 1924 24 NI BB NOT_NAMED 1924-08-06 15:00:00 TS 23.6537 82.1462 main 0 0 _________PO___ -1 23.7075 82.0924 TC 30 23.6000 82.2000 1 3 317
1924216N21090 1924 24 NI BB NOT_NAMED 1924-08-06 18:00:00 TS 23.7576 82.0367 main 0 0 _________OP___ -1 23.8000 82.0000 TC 30 23.7153 82.0734 1 3 316
1924216N21090 1924 24 NI BB NOT_NAMED 1924-08-06 21:00:00 TS 23.8650 81.9275 main 0 0 _________PP___ -1 23.9075 81.8925 TC 30 23.8225 81.9625 1 3 317
1924216N21090 1924 24 NI BB NOT_NAMED 1924-08-07 00:00:00 TS 23.9592 81.8352 main 0 0 _________OP___ -1 24.0000 81.8000 TC 30 23.9184 81.8703 1 2 318
1924216N21090 1924 24 NI BB NOT_NAMED 1924-08-07 03:00:00 TS 24.0287 81.7675 main 0 0 _________PO___ -1 24.0575 81.7350 TC 30 24.0000 81.8000 1 2 322
1924216N21090 1924 24 NI BB NOT_NAMED 1924-08-07 06:00:00 TS 24.0801 81.7267 main 0 0 _________OP___ -1 24.1000 81.7000 TC 30 24.0603 81.7533 1 1 329
1924216N21090 1924 24 NI BB NOT_NAMED 1924-08-07 09:00:00 TS 24.1250 81.7137 main 0 0 _________PP___ -1 24.1425 81.7000 TC 30 24.1075 81.7274 1 1 350
1924216N21090 1924 24 NI BB NOT_NAMED 1924-08-07 12:00:00 TS 24.1755 81.7064 main 0 0 _________OP___ -1 24.2000 81.7000 TC 30 24.1509 81.7127 1 1 342
1924216N21090 1924 24 NI BB NOT_NAMED 1924-08-07 15:00:00 TS 24.2500 81.6750 main 0 0 _________PO___ -1 24.3000 81.6500 TC 30 24.2000 81.7000 1 2 338
1924216N21090 1924 24 NI BB NOT_NAMED 1924-08-07 18:00:00 TS 24.3400 81.6355 main 0 0 _________OP___ -1 24.4000 81.6000 TC 30 24.2800 81.6710 1 2 343
1924216N21090 1924 24 NI BB NOT_NAMED 1924-08-07 21:00:00 TS 24.4150 81.6175 main 0 0 _________PP___ -1 24.4650 81.5925 TC 30 24.3650 81.6425 1 1 0
1924216N21090 1924 24 NI BB NOT_NAMED 1924-08-08 00:00:00 TS 24.4713 81.6089 main 0 0 _________OP___ -1 24.5000 81.6000 TC 30 24.4425 81.6178 1 1 0
1924216N21090 1924 24 NI BB NOT_NAMED 1924-08-08 03:00:00 TS 24.5037 81.6000 main 0 0 _________PO___ -1 24.5075 81.6000 TC 30 24.5000 81.6000 1 0 358
1924216N21090 1924 24 NI BB NOT_NAMED 1924-08-08 06:00:00 TS 24.5108 81.5964 main 0 0 _________OP___ -1 24.5000 81.6000 TC 30 24.5216 81.5928 1 0 0
1924216N21090 1924 24 NI BB NOT_NAMED 1924-08-08 09:00:00 TS 24.5112 81.5962 main 0 0 _________PP___ -1 24.5000 81.6000 TC 30 24.5225 81.5925 1 0 0
1924216N21090 1924 24 NI BB NOT_NAMED 1924-08-08 12:00:00 TS 24.5061 81.5980 main 0 0 _________OP___ -1 24.5000 81.6000 TC 30 24.5122 81.5959 1 0 0
1924216N21090 1924 24 NI BB NOT_NAMED 1924-08-08 15:00:00 TS 24.5000 81.6000 main 0 0 _________PO___ -1 24.5000 81.6000 TC 30 24.5000 81.6000 1 0 125
1924216N21090 1924 24 NI BB NOT_NAMED 1924-08-08 18:00:00 TS 24.4836 81.6303 main 0 0 _________OP___ -1 24.5000 81.6000 TC 30 24.4672 81.6605 1 1 122
1924216N21090 1924 24 NI BB NOT_NAMED 1924-08-08 21:00:00 TS 24.4584 81.6783 main 0 0 _________PP___ -1 24.4774 81.6449 TC 30 24.4394 81.7117 1 0 0
1924216N21090 1924 24 NI BB NOT_NAMED 1924-08-09 00:00:00 TS 24.4710 81.6535 main 0 0 _________OP___ -1 24.5000 81.6000 TC 30 24.4419 81.7071 1 2 299
1924216N21090 1924 24 NI BB NOT_NAMED 1924-08-09 03:00:00 TS 24.5562 81.4837 main 0 0 _________PO___ -1 24.6124 81.3674 TC 30 24.5000 81.6000 1 5 300
1924216N21090 1924 24 NI BB NOT_NAMED 1924-08-09 06:00:00 TS 24.7275 81.1729 main 0 0 _________OP___ -1 24.8000 81.0000 TC 30 24.6549 81.3457 1 8 302
1924216N21090 1924 24 NI BB NOT_NAMED 1924-08-09 09:00:00 TS 24.9564 80.7794 main 0 0 _________PP___ -1 25.0500 80.5727 TC 30 24.8628 80.9861 1 9 301
1924216N21090 1924 24 NI BB NOT_NAMED 1924-08-09 12:00:00 TS 25.1946 80.3291 main 0 0 _________OP___ -1 25.3000 80.1000 TC 30 25.0892 80.5583 1 9 298
1924216N21090 1924 24 NI BB NOT_NAMED 1924-08-09 15:00:00 TS 25.3862 79.8749 main 0 0 _________PO___ -1 25.4724 79.6498 TC 30 25.3000 80.1000 1 9 293
1924216N21090 1924 24 NI BB NOT_NAMED 1924-08-09 18:00:00 TS 25.5251 79.4531 main 0 0 _________OP___ -1 25.6000 79.2000 TC 30 25.4690 79.6430 1 8 288
1924216N21090 1924 24 NI BB NOT_NAMED 1924-08-09 21:00:00 TS 25.6425 79.0153 main 0 0 _________PP___ -1 25.7053 78.7502 TC 30 25.6006 79.1921 1 8 285
1924216N21090 1924 24 NI BB NOT_NAMED 1924-08-10 00:00:00 TS 25.7380 78.5968 main 0 0 _________OP___ -1 25.8000 78.3000 TC 30 25.7070 78.7452 1 7 284
1924216N21090 1924 24 NI BB NOT_NAMED 1924-08-10 03:00:00 NR 25.8000 78.3000 main 0 __________O___ -1 TC 25.8000 78.3000 1 5 283

About IBTrACS Database

This database is a web-friendly format of International Best Track Archive for Climate Stewardship (IBTrACS), a global best track data archive curated by NOAA dating back to 1842.

Updated: 2021-10-27